Time;durP1;ratioP1;P1;durP2;ratioP2;P2;SDS_P1;SDS_P2;PMS_P1;PMS_P2;Temp;Humidity;BMP_temperature;BMP_pressure;BME280_temperature;BME280_humidity;BME280_pressure;Samples;Min_cycle;Max_cycle;Signal;HPM_P1;HPM_P2
2020/12/25 00:00:46;;;;;;;8.4;3.7;;;;;;;3.4;83.1;101840.0;;;;
2020/12/25 00:02:46;;;;;;;8.4;3.7;;;;;;;3.3;82.6;101840.0;;;;
2020/12/25 00:03:46;;;;;;;8.4;3.7;;;;;;;3.4;83.1;101840.0;;;;
2020/12/25 00:06:46;;;;;;;8.4;3.7;;;;;;;3.5;82.6;101850.0;;;;
2020/12/25 00:07:46;;;;;;;8.4;3.7;;;;;;;3.3;82.7;101860.0;;;;
2020/12/25 00:09:46;;;;;;;8.4;3.7;;;;;;;3.2;82.4;101850.0;;;;
2020/12/25 00:10:46;;;;;;;8.4;3.7;;;;;;;3.3;82.8;101860.0;;;;
2020/12/25 00:12:46;;;;;;;8.4;3.7;;;;;;;3.2;82.8;101860.0;;;;
2020/12/25 00:13:46;;;;;;;8.4;3.7;;;;;;;3.3;82.7;101860.0;;;;
2020/12/25 00:15:46;;;;;;;8.4;3.7;;;;;;;3.2;82.7;101860.0;;;;
2020/12/25 00:19:46;;;;;;;8.4;3.7;;;;;;;3.1;82.8;101870.0;;;;
2020/12/25 00:20:48;;;;;;;8.4;3.7;;;;;;;3.2;82.9;101870.0;;;;
2020/12/25 00:22:46;;;;;;;8.4;3.7;;;;;;;3.1;82.8;101870.0;;;;
2020/12/25 00:24:46;;;;;;;8.4;3.7;;;;;;;3.2;82.8;101870.0;;;;
2020/12/25 00:27:46;;;;;;;8.4;3.7;;;;;;;3.1;82.2;101880.0;;;;
2020/12/25 00:28:46;;;;;;;8.4;3.7;;;;;;;3.2;82.6;101880.0;;;;
2020/12/25 00:30:46;;;;;;;7.0;3.7;;;;;;;3.1;82.5;101880.0;;;;
2020/12/25 00:32:46;;;;;;;7.0;3.7;;;;;;;3.2;82.8;101890.0;;;;
2020/12/25 00:35:46;;;;;;;7.0;3.7;;;;;;;2.9;82.5;101890.0;;;;
2020/12/25 00:40:46;;;;;;;7.0;3.7;;;;;;;3.0;82.7;101890.0;;;;
2020/12/25 00:42:46;;;;;;;7.0;3.7;;;;;;;2.9;82.5;101890.0;;;;
2020/12/25 00:43:46;;;;;;;7.0;3.7;;;;;;;2.8;82.6;101900.0;;;;
2020/12/25 00:44:46;;;;;;;7.0;3.7;;;;;;;2.9;82.9;101900.0;;;;
2020/12/25 00:46:47;;;;;;;7.0;3.7;;;;;;;2.9;82.5;101900.0;;;;
2020/12/25 00:58:46;;;;;;;7.0;3.7;;;;;;;2.8;82.4;101910.0;;;;
2020/12/25 01:00:46;;;;;;;5.9;3.5;;;;;;;2.7;83.0;101910.0;;;;
2020/12/25 01:01:49;;;;;;;5.9;3.5;;;;;;;2.8;82.9;101910.0;;;;
2020/12/25 01:02:46;;;;;;;5.9;3.5;;;;;;;2.7;82.6;101910.0;;;;
2020/12/25 01:04:46;;;;;;;5.9;3.5;;;;;;;2.6;83.1;101910.0;;;;
2020/12/25 01:05:46;;;;;;;5.9;3.5;;;;;;;2.7;83.1;101910.0;;;;
2020/12/25 01:07:46;;;;;;;5.9;3.5;;;;;;;2.8;83.0;101910.0;;;;
2020/12/25 01:08:47;;;;;;;5.9;3.5;;;;;;;2.7;82.3;101910.0;;;;
2020/12/25 01:09:46;;;;;;;5.9;3.5;;;;;;;2.6;82.5;101910.0;;;;
2020/12/25 01:10:47;;;;;;;5.9;3.5;;;;;;;2.5;82.5;101910.0;;;;
2020/12/25 01:12:46;;;;;;;5.9;3.5;;;;;;;2.6;83.1;101910.0;;;;
2020/12/25 01:15:46;;;;;;;5.9;3.5;;;;;;;2.5;82.8;101910.0;;;;
2020/12/25 01:16:46;;;;;;;5.9;3.5;;;;;;;2.6;82.9;101910.0;;;;
2020/12/25 01:17:46;;;;;;;5.9;3.5;;;;;;;2.5;82.5;101910.0;;;;
2020/12/25 01:19:46;;;;;;;5.9;3.5;;;;;;;2.6;83.0;101920.0;;;;
2020/12/25 01:20:46;;;;;;;5.9;3.5;;;;;;;2.5;82.8;101920.0;;;;
2020/12/25 01:21:46;;;;;;;5.9;3.5;;;;;;;2.6;83.1;101920.0;;;;
2020/12/25 01:22:46;;;;;;;5.9;3.5;;;;;;;2.5;82.6;101920.0;;;;
2020/12/25 01:26:46;;;;;;;5.9;3.5;;;;;;;2.6;83.0;101920.0;;;;
2020/12/25 01:28:46;;;;;;;5.9;3.5;;;;;;;2.5;83.2;101930.0;;;;
2020/12/25 01:33:46;;;;;;;6.2;3.9;;;;;;;2.6;82.6;101940.0;;;;
2020/12/25 01:34:46;;;;;;;6.2;3.9;;;;;;;2.5;82.7;101950.0;;;;
2020/12/25 01:35:46;;;;;;;6.2;3.9;;;;;;;2.4;82.6;101950.0;;;;
2020/12/25 01:37:46;;;;;;;6.2;3.9;;;;;;;2.5;83.1;101950.0;;;;
2020/12/25 01:39:46;;;;;;;6.2;3.9;;;;;;;2.4;82.8;101960.0;;;;
2020/12/25 01:40:46;;;;;;;6.2;3.9;;;;;;;2.3;82.9;101960.0;;;;
2020/12/25 01:41:46;;;;;;;6.2;3.9;;;;;;;2.4;83.0;101960.0;;;;
2020/12/25 01:42:46;;;;;;;6.2;3.9;;;;;;;2.3;82.9;101960.0;;;;
2020/12/25 01:46:46;;;;;;;6.2;3.9;;;;;;;2.2;83.3;101970.0;;;;
2020/12/25 01:48:46;;;;;;;6.2;3.9;;;;;;;2.4;83.4;101960.0;;;;
2020/12/25 01:50:46;;;;;;;6.2;3.9;;;;;;;2.3;83.2;101970.0;;;;
2020/12/25 01:51:46;;;;;;;6.2;3.9;;;;;;;2.4;83.4;101960.0;;;;
2020/12/25 01:52:47;;;;;;;6.2;3.9;;;;;;;2.3;83.1;101970.0;;;;
2020/12/25 01:55:48;;;;;;;6.2;3.9;;;;;;;2.4;83.2;101970.0;;;;
2020/12/25 01:56:46;;;;;;;6.2;3.9;;;;;;;2.5;83.1;101970.0;;;;
2020/12/25 01:57:46;;;;;;;6.2;3.9;;;;;;;2.3;82.6;101970.0;;;;
2020/12/25 02:00:47;;;;;;;9.3;4.2;;;;;;;2.4;83.3;101980.0;;;;
2020/12/25 02:03:47;;;;;;;9.3;4.2;;;;;;;2.3;83.0;102000.0;;;;
2020/12/25 02:05:46;;;;;;;9.3;4.2;;;;;;;2.2;83.1;101990.0;;;;
2020/12/25 02:06:46;;;;;;;9.3;4.2;;;;;;;2.1;83.3;102000.0;;;;
2020/12/25 02:08:46;;;;;;;9.3;4.2;;;;;;;2.2;83.6;101990.0;;;;
2020/12/25 02:15:46;;;;;;;9.3;4.2;;;;;;;2.3;83.4;102000.0;;;;
2020/12/25 02:16:46;;;;;;;9.3;4.2;;;;;;;2.1;83.3;102000.0;;;;
2020/12/25 02:17:47;;;;;;;9.3;4.2;;;;;;;2.2;83.4;102010.0;;;;
2020/12/25 02:19:46;;;;;;;9.3;4.2;;;;;;;2.3;83.5;102010.0;;;;
2020/12/25 02:23:46;;;;;;;9.3;4.2;;;;;;;2.2;83.3;102020.0;;;;
2020/12/25 02:24:46;;;;;;;9.3;4.2;;;;;;;2.3;83.4;102010.0;;;;
2020/12/25 02:25:46;;;;;;;9.3;4.2;;;;;;;2.2;83.3;102020.0;;;;
2020/12/25 02:31:46;;;;;;;5.5;3.6;;;;;;;2.3;83.3;102030.0;;;;
2020/12/25 02:38:46;;;;;;;5.5;3.6;;;;;;;2.2;83.1;102040.0;;;;
2020/12/25 02:39:46;;;;;;;5.5;3.6;;;;;;;2.3;83.1;102040.0;;;;
2020/12/25 02:40:46;;;;;;;5.5;3.6;;;;;;;2.2;82.9;102040.0;;;;
2020/12/25 02:41:46;;;;;;;5.5;3.6;;;;;;;2.0;83.3;102040.0;;;;
2020/12/25 02:42:46;;;;;;;5.5;3.6;;;;;;;2.1;83.5;102050.0;;;;
2020/12/25 02:43:46;;;;;;;5.5;3.6;;;;;;;2.2;83.5;102040.0;;;;
2020/12/25 02:47:46;;;;;;;5.5;3.6;;;;;;;2.1;83.4;102050.0;;;;
2020/12/25 02:49:46;;;;;;;5.5;3.6;;;;;;;2.2;83.3;102050.0;;;;
2020/12/25 02:51:47;;;;;;;5.5;3.6;;;;;;;2.1;83.2;102050.0;;;;
2020/12/25 02:54:46;;;;;;;5.5;3.6;;;;;;;2.2;83.3;102050.0;;;;
2020/12/25 02:58:46;;;;;;;5.5;3.6;;;;;;;2.1;83.1;102050.0;;;;
2020/12/25 03:00:46;;;;;;;7.0;4.1;;;;;;;2.2;83.4;102050.0;;;;
2020/12/25 03:01:48;;;;;;;7.0;4.1;;;;;;;2.1;83.2;102050.0;;;;
2020/12/25 03:02:46;;;;;;;7.0;4.1;;;;;;;2.2;83.4;102050.0;;;;
2020/12/25 03:03:46;;;;;;;7.0;4.1;;;;;;;2.1;83.1;102050.0;;;;
2020/12/25 03:06:46;;;;;;;7.0;4.1;;;;;;;2.2;83.5;102050.0;;;;
2020/12/25 03:08:46;;;;;;;7.0;4.1;;;;;;;2.1;83.3;102050.0;;;;
2020/12/25 03:10:46;;;;;;;7.0;4.1;;;;;;;2.2;83.6;102040.0;;;;
2020/12/25 03:11:46;;;;;;;7.0;4.1;;;;;;;2.3;83.5;102040.0;;;;
2020/12/25 03:13:46;;;;;;;7.0;4.1;;;;;;;2.2;83.2;102050.0;;;;
2020/12/25 03:14:46;;;;;;;7.0;4.1;;;;;;;2.1;83.6;102050.0;;;;
2020/12/25 03:16:46;;;;;;;7.0;4.1;;;;;;;2.2;83.6;102040.0;;;;
2020/12/25 03:19:46;;;;;;;7.0;4.1;;;;;;;2.3;83.7;102040.0;;;;
2020/12/25 03:20:46;;;;;;;7.0;4.1;;;;;;;2.2;83.6;102040.0;;;;
2020/12/25 03:21:46;;;;;;;7.0;4.1;;;;;;;2.3;83.7;102040.0;;;;
2020/12/25 03:22:46;;;;;;;7.0;4.1;;;;;;;2.2;83.6;102050.0;;;;
2020/12/25 03:23:46;;;;;;;7.0;4.1;;;;;;;2.3;83.7;102050.0;;;;
2020/12/25 03:24:46;;;;;;;7.0;4.1;;;;;;;2.4;83.6;102040.0;;;;
2020/12/25 03:25:46;;;;;;;7.0;4.1;;;;;;;2.5;83.4;102040.0;;;;
2020/12/25 03:26:46;;;;;;;7.0;4.1;;;;;;;2.4;83.4;102040.0;;;;
2020/12/25 03:29:46;;;;;;;6.4;3.6;;;;;;;2.3;83.8;102050.0;;;;
2020/12/25 03:34:46;;;;;;;6.4;3.6;;;;;;;2.4;83.3;102060.0;;;;
2020/12/25 03:37:46;;;;;;;6.4;3.6;;;;;;;2.5;83.1;102060.0;;;;
2020/12/25 03:38:46;;;;;;;6.4;3.6;;;;;;;2.4;83.1;102060.0;;;;
2020/12/25 03:39:46;;;;;;;6.4;3.6;;;;;;;2.5;83.0;102060.0;;;;
2020/12/25 03:40:46;;;;;;;6.4;3.6;;;;;;;2.4;83.0;102060.0;;;;
2020/12/25 03:43:46;;;;;;;6.4;3.6;;;;;;;2.5;83.1;102060.0;;;;
2020/12/25 03:44:46;;;;;;;6.4;3.6;;;;;;;2.4;82.7;102060.0;;;;
2020/12/25 03:48:46;;;;;;;6.4;3.6;;;;;;;2.5;83.0;102070.0;;;;
2020/12/25 03:49:46;;;;;;;6.4;3.6;;;;;;;2.4;83.0;102070.0;;;;
2020/12/25 03:51:46;;;;;;;6.4;3.6;;;;;;;2.3;82.6;102080.0;;;;
2020/12/25 03:52:46;;;;;;;6.4;3.6;;;;;;;2.2;83.1;102080.0;;;;
2020/12/25 03:53:46;;;;;;;6.4;3.6;;;;;;;2.3;83.3;102080.0;;;;
2020/12/25 03:55:46;;;;;;;6.4;3.6;;;;;;;2.2;83.2;102080.0;;;;
2020/12/25 03:56:46;;;;;;;6.4;3.6;;;;;;;2.3;83.1;102070.0;;;;
2020/12/25 03:58:46;;;;;;;6.4;3.6;;;;;;;2.1;83.2;102080.0;;;;
2020/12/25 04:03:46;;;;;;;6.9;3.1;;;;;;;2.2;83.2;102080.0;;;;
2020/12/25 04:08:46;;;;;;;6.9;3.1;;;;;;;2.1;82.9;102080.0;;;;
2020/12/25 04:12:46;;;;;;;6.9;3.1;;;;;;;2.0;82.9;102080.0;;;;
2020/12/25 04:14:46;;;;;;;6.9;3.1;;;;;;;1.9;83.1;102080.0;;;;
2020/12/25 04:15:46;;;;;;;6.9;3.1;;;;;;;2.0;83.3;102080.0;;;;
2020/12/25 04:18:46;;;;;;;6.9;3.1;;;;;;;2.1;83.4;102090.0;;;;
2020/12/25 04:21:46;;;;;;;6.9;3.1;;;;;;;2.0;83.1;102090.0;;;;
2020/12/25 04:22:46;;;;;;;6.9;3.1;;;;;;;2.1;83.4;102090.0;;;;
2020/12/25 04:23:46;;;;;;;6.9;3.1;;;;;;;2.0;83.1;102090.0;;;;
2020/12/25 04:26:46;;;;;;;6.9;3.1;;;;;;;1.9;83.0;102090.0;;;;
2020/12/25 04:28:46;;;;;;;6.9;3.1;;;;;;;1.8;83.4;102090.0;;;;
2020/12/25 04:29:46;;;;;;;7.4;3.5;;;;;;;1.9;83.4;102090.0;;;;
2020/12/25 04:30:46;;;;;;;7.4;3.5;;;;;;;2.0;83.5;102090.0;;;;
2020/12/25 04:31:46;;;;;;;7.4;3.5;;;;;;;1.9;83.1;102090.0;;;;
2020/12/25 04:34:46;;;;;;;7.4;3.5;;;;;;;1.8;83.4;102090.0;;;;
2020/12/25 04:35:46;;;;;;;7.4;3.5;;;;;;;2.0;83.7;102100.0;;;;
2020/12/25 04:37:46;;;;;;;7.4;3.5;;;;;;;1.9;83.1;102100.0;;;;
2020/12/25 04:43:46;;;;;;;7.4;3.5;;;;;;;2.0;83.3;102090.0;;;;
2020/12/25 04:49:47;;;;;;;7.4;3.5;;;;;;;1.9;83.1;102100.0;;;;
2020/12/25 04:50:46;;;;;;;7.4;3.5;;;;;;;2.0;83.1;102100.0;;;;
2020/12/25 04:51:46;;;;;;;7.4;3.5;;;;;;;1.9;83.0;102100.0;;;;
2020/12/25 04:52:47;;;;;;;7.4;3.5;;;;;;;1.8;83.1;102100.0;;;;
2020/12/25 04:53:50;;;;;;;7.4;3.5;;;;;;;1.9;83.3;102100.0;;;;
2020/12/25 04:54:46;;;;;;;7.4;3.5;;;;;;;1.8;83.1;102110.0;;;;
2020/12/25 04:58:47;;;;;;;7.4;3.5;;;;;;;1.7;83.2;102120.0;;;;
2020/12/25 05:04:46;;;;;;;3.6;3.3;;;;;;;1.8;83.5;102130.0;;;;
2020/12/25 05:06:47;;;;;;;3.6;3.3;;;;;;;1.7;83.5;102130.0;;;;
2020/12/25 05:07:46;;;;;;;3.6;3.3;;;;;;;1.8;83.5;102140.0;;;;
2020/12/25 05:11:49;;;;;;;3.6;3.3;;;;;;;1.9;83.5;102140.0;;;;
2020/12/25 05:12:46;;;;;;;3.6;3.3;;;;;;;1.8;83.4;102140.0;;;;
2020/12/25 05:13:48;;;;;;;3.6;3.3;;;;;;;1.9;83.5;102150.0;;;;
2020/12/25 05:14:46;;;;;;;3.6;3.3;;;;;;;1.8;83.6;102150.0;;;;
2020/12/25 05:15:48;;;;;;;3.6;3.3;;;;;;;1.9;83.5;102150.0;;;;
2020/12/25 05:18:47;;;;;;;3.6;3.3;;;;;;;1.8;83.4;102150.0;;;;
2020/12/25 05:21:46;;;;;;;3.6;3.3;;;;;;;1.9;83.5;102150.0;;;;
2020/12/25 05:23:48;;;;;;;3.6;3.3;;;;;;;1.8;83.4;102150.0;;;;
2020/12/25 05:31:47;;;;;;;4.1;2.9;;;;;;;1.9;83.6;102150.0;;;;
2020/12/25 05:32:47;;;;;;;4.1;2.9;;;;;;;1.8;83.4;102150.0;;;;
2020/12/25 05:37:46;;;;;;;4.1;2.9;;;;;;;1.7;83.2;102160.0;;;;
2020/12/25 05:39:47;;;;;;;4.1;2.9;;;;;;;1.8;83.3;102160.0;;;;
2020/12/25 05:46:47;;;;;;;4.1;2.9;;;;;;;1.7;83.4;102160.0;;;;
2020/12/25 05:47:56;;;;;;;4.1;2.9;;;;;;;1.8;83.4;102160.0;;;;
2020/12/25 05:50:47;;;;;;;4.1;2.9;;;;;;;1.7;82.9;102170.0;;;;
2020/12/25 05:51:47;;;;;;;4.1;2.9;;;;;;;1.8;83.2;102170.0;;;;
2020/12/25 05:55:46;;;;;;;4.1;2.9;;;;;;;1.7;83.1;102180.0;;;;
2020/12/25 05:57:49;;;;;;;4.1;2.9;;;;;;;1.6;83.2;102180.0;;;;
2020/12/25 05:58:48;;;;;;;4.1;2.9;;;;;;;1.7;83.6;102180.0;;;;
2020/12/25 05:59:48;;;;;;;3.9;3.1;;;;;;;1.6;83.4;102180.0;;;;
2020/12/25 06:01:46;;;;;;;3.9;3.1;;;;;;;1.7;83.5;102180.0;;;;
2020/12/25 06:02:47;;;;;;;3.9;3.1;;;;;;;1.6;83.2;102190.0;;;;
2020/12/25 06:05:46;;;;;;;3.9;3.1;;;;;;;1.5;83.5;102190.0;;;;
2020/12/25 06:09:57;;;;;;;3.9;3.1;;;;;;;1.4;83.6;102190.0;;;;
2020/12/25 06:11:48;;;;;;;3.9;3.1;;;;;;;1.6;84.0;102190.0;;;;
2020/12/25 06:14:51;;;;;;;3.9;3.1;;;;;;;1.4;83.7;102200.0;;;;
2020/12/25 06:15:49;;;;;;;3.9;3.1;;;;;;;1.5;83.7;102200.0;;;;
2020/12/25 06:18:03;;;;;;;3.9;3.1;;;;;;;1.4;83.7;102200.0;;;;
2020/12/25 06:18:51;;;;;;;3.9;3.1;;;;;;;1.5;84.0;102200.0;;;;
2020/12/25 06:19:53;;;;;;;3.9;3.1;;;;;;;1.4;84.0;102200.0;;;;
2020/12/25 06:21:51;;;;;;;3.9;3.1;;;;;;;1.5;83.9;102210.0;;;;
2020/12/25 06:26:50;;;;;;;3.9;3.1;;;;;;;1.6;83.9;102210.0;;;;
2020/12/25 06:27:49;;;;;;;3.9;3.1;;;;;;;1.5;83.8;102210.0;;;;
2020/12/25 06:28:48;;;;;;;5.2;4.8;;;;;;;1.7;83.9;102220.0;;;;
2020/12/25 06:29:46;;;;;;;5.2;4.8;;;;;;;1.6;83.6;102210.0;;;;
2020/12/25 06:32:48;;;;;;;5.2;4.8;;;;;;;1.5;83.8;102210.0;;;;
2020/12/25 06:35:46;;;;;;;5.2;4.8;;;;;;;1.4;84.1;102220.0;;;;
2020/12/25 06:36:47;;;;;;;5.2;4.8;;;;;;;1.5;84.2;102220.0;;;;
2020/12/25 06:38:46;;;;;;;5.2;4.8;;;;;;;1.6;83.9;102220.0;;;;
2020/12/25 06:40:47;;;;;;;5.2;4.8;;;;;;;1.5;83.9;102220.0;;;;
2020/12/25 06:41:46;;;;;;;5.2;4.8;;;;;;;1.6;83.8;102220.0;;;;
2020/12/25 06:43:48;;;;;;;5.2;4.8;;;;;;;1.5;83.8;102220.0;;;;
2020/12/25 06:45:51;;;;;;;5.2;4.8;;;;;;;1.4;84.0;102230.0;;;;
2020/12/25 06:46:47;;;;;;;5.2;4.8;;;;;;;1.6;84.1;102220.0;;;;
2020/12/25 06:47:46;;;;;;;5.2;4.8;;;;;;;1.5;83.9;102220.0;;;;
2020/12/25 06:49:49;;;;;;;5.2;4.8;;;;;;;1.6;83.8;102220.0;;;;
2020/12/25 06:50:52;;;;;;;5.2;4.8;;;;;;;1.5;83.6;102220.0;;;;
2020/12/25 06:52:55;;;;;;;5.2;4.8;;;;;;;1.6;83.9;102220.0;;;;
2020/12/25 06:56:49;;;;;;;5.2;4.8;;;;;;;1.5;83.3;102230.0;;;;
2020/12/25 06:57:46;;;;;;;5.2;4.8;;;;;;;1.6;83.6;102230.0;;;;
2020/12/25 07:06:51;;;;;;;7.6;4.9;;;;;;;1.5;83.9;102230.0;;;;
2020/12/25 07:08:50;;;;;;;7.6;4.9;;;;;;;1.6;84.0;102240.0;;;;
2020/12/25 07:11:49;;;;;;;7.6;4.9;;;;;;;1.7;83.5;102240.0;;;;
2020/12/25 07:13:46;;;;;;;7.6;4.9;;;;;;;1.6;83.7;102250.0;;;;
2020/12/25 07:17:46;;;;;;;7.6;4.9;;;;;;;1.7;84.0;102240.0;;;;
2020/12/25 07:19:46;;;;;;;7.6;4.9;;;;;;;1.6;84.2;102250.0;;;;
2020/12/25 07:20:46;;;;;;;7.6;4.9;;;;;;;1.7;84.3;102250.0;;;;
2020/12/25 07:25:46;;;;;;;7.6;4.9;;;;;;;1.8;84.1;102250.0;;;;
2020/12/25 07:26:46;;;;;;;7.6;4.9;;;;;;;1.9;83.7;102250.0;;;;
2020/12/25 07:27:46;;;;;;;7.6;4.9;;;;;;;1.8;83.7;102250.0;;;;
2020/12/25 07:28:46;;;;;;;9.7;5.3;;;;;;;1.9;83.5;102250.0;;;;
2020/12/25 07:31:47;;;;;;;9.7;5.3;;;;;;;1.8;83.7;102260.0;;;;
2020/12/25 07:40:46;;;;;;;9.7;5.3;;;;;;;1.7;83.5;102260.0;;;;
2020/12/25 07:44:46;;;;;;;9.7;5.3;;;;;;;1.8;83.4;102260.0;;;;
2020/12/25 07:45:47;;;;;;;9.7;5.3;;;;;;;1.7;83.5;102260.0;;;;
2020/12/25 07:50:46;;;;;;;9.7;5.3;;;;;;;1.8;83.4;102270.0;;;;
2020/12/25 07:52:48;;;;;;;9.7;5.3;;;;;;;1.7;83.1;102270.0;;;;
2020/12/25 07:57:47;;;;;;;9.7;5.3;;;;;;;1.6;83.5;102270.0;;;;
2020/12/25 07:58:47;;;;;;;11.7;6.0;;;;;;;1.7;83.5;102280.0;;;;
2020/12/25 08:02:48;;;;;;;11.7;6.0;;;;;;;1.6;83.5;102280.0;;;;
2020/12/25 08:07:46;;;;;;;11.7;6.0;;;;;;;1.5;83.6;102280.0;;;;
2020/12/25 08:08:49;;;;;;;11.7;6.0;;;;;;;1.6;83.7;102280.0;;;;
2020/12/25 08:09:46;;;;;;;11.7;6.0;;;;;;;1.5;83.5;102280.0;;;;
2020/12/25 08:10:46;;;;;;;11.7;6.0;;;;;;;1.6;83.5;102280.0;;;;
2020/12/25 08:11:46;;;;;;;11.7;6.0;;;;;;;1.7;83.4;102280.0;;;;
2020/12/25 08:13:48;;;;;;;11.7;6.0;;;;;;;1.6;83.3;102280.0;;;;
2020/12/25 08:15:46;;;;;;;11.7;6.0;;;;;;;1.5;83.5;102290.0;;;;
2020/12/25 08:16:48;;;;;;;11.7;6.0;;;;;;;1.6;83.5;102290.0;;;;
2020/12/25 08:17:48;;;;;;;11.7;6.0;;;;;;;1.7;83.5;102290.0;;;;
2020/12/25 08:18:47;;;;;;;11.7;6.0;;;;;;;1.6;83.4;102300.0;;;;
2020/12/25 08:19:47;;;;;;;11.7;6.0;;;;;;;1.5;83.4;102290.0;;;;
2020/12/25 08:20:53;;;;;;;11.7;6.0;;;;;;;1.6;83.5;102290.0;;;;
2020/12/25 08:22:46;;;;;;;11.7;6.0;;;;;;;1.5;83.6;102290.0;;;;
2020/12/25 08:23:46;;;;;;;11.7;6.0;;;;;;;1.6;83.7;102290.0;;;;
2020/12/25 08:25:52;;;;;;;11.7;6.0;;;;;;;1.5;83.6;102300.0;;;;
2020/12/25 08:26:46;;;;;;;11.7;6.0;;;;;;;1.6;83.6;102300.0;;;;
2020/12/25 08:27:46;;;;;;;11.7;6.0;;;;;;;1.5;83.6;102300.0;;;;
2020/12/25 08:32:46;;;;;;;12.0;6.6;;;;;;;1.6;83.6;102310.0;;;;
2020/12/25 08:34:46;;;;;;;12.0;6.6;;;;;;;1.5;83.8;102310.0;;;;
2020/12/25 08:35:46;;;;;;;12.0;6.6;;;;;;;1.6;83.9;102310.0;;;;
2020/12/25 08:36:55;;;;;;;12.0;6.6;;;;;;;1.5;83.8;102310.0;;;;
2020/12/25 08:37:54;;;;;;;12.0;6.6;;;;;;;1.6;83.7;102310.0;;;;
2020/12/25 08:42:46;;;;;;;12.0;6.6;;;;;;;1.7;83.5;102310.0;;;;
2020/12/25 08:44:55;;;;;;;12.0;6.6;;;;;;;1.6;83.8;102310.0;;;;
2020/12/25 08:46:46;;;;;;;12.0;6.6;;;;;;;1.5;84.0;102310.0;;;;
2020/12/25 08:48:06;;;;;;;12.0;6.6;;;;;;;1.6;84.0;102310.0;;;;
2020/12/25 08:48:49;;;;;;;12.0;6.6;;;;;;;1.5;83.9;102320.0;;;;
2020/12/25 08:53:50;;;;;;;12.0;6.6;;;;;;;1.6;84.1;102330.0;;;;
2020/12/25 08:54:53;;;;;;;12.0;6.6;;;;;;;1.5;84.4;102330.0;;;;
2020/12/25 08:56:46;;;;;;;12.0;6.6;;;;;;;1.6;84.0;102330.0;;;;
2020/12/25 09:01:47;;;;;;;14.8;5.8;;;;;;;1.7;83.9;102330.0;;;;
2020/12/25 09:10:46;;;;;;;14.8;5.8;;;;;;;1.6;84.2;102340.0;;;;
2020/12/25 09:11:46;;;;;;;14.8;5.8;;;;;;;1.7;84.2;102340.0;;;;
2020/12/25 09:13:47;;;;;;;14.8;5.8;;;;;;;1.8;84.2;102340.0;;;;
2020/12/25 09:26:46;;;;;;;14.8;5.8;;;;;;;1.9;84.7;102340.0;;;;
2020/12/25 09:33:46;;;;;;;10.0;6.1;;;;;;;2.0;84.6;102340.0;;;;
2020/12/25 09:34:46;;;;;;;10.0;6.1;;;;;;;2.1;84.5;102340.0;;;;
2020/12/25 09:35:46;;;;;;;10.0;6.1;;;;;;;2.0;84.6;102350.0;;;;
2020/12/25 09:36:46;;;;;;;10.0;6.1;;;;;;;2.1;84.6;102350.0;;;;
2020/12/25 09:37:46;;;;;;;10.0;6.1;;;;;;;2.2;84.5;102350.0;;;;
2020/12/25 09:40:47;;;;;;;10.0;6.1;;;;;;;2.3;84.2;102360.0;;;;
2020/12/25 09:42:46;;;;;;;10.0;6.1;;;;;;;2.4;84.2;102360.0;;;;
2020/12/25 09:45:46;;;;;;;10.0;6.1;;;;;;;2.5;84.5;102360.0;;;;
2020/12/25 09:48:46;;;;;;;10.0;6.1;;;;;;;2.7;84.5;102360.0;;;;
2020/12/25 09:49:46;;;;;;;10.0;6.1;;;;;;;2.6;84.7;102370.0;;;;
2020/12/25 09:51:46;;;;;;;10.0;6.1;;;;;;;2.7;84.8;102370.0;;;;
2020/12/25 09:54:46;;;;;;;10.0;6.1;;;;;;;2.8;84.8;102360.0;;;;
2020/12/25 09:56:48;;;;;;;10.0;6.1;;;;;;;2.9;84.0;102360.0;;;;
2020/12/25 09:57:46;;;;;;;11.2;5.7;;;;;;;3.0;84.0;102360.0;;;;
2020/12/25 10:02:46;;;;;;;11.2;5.7;;;;;;;3.1;84.0;102350.0;;;;
2020/12/25 10:03:46;;;;;;;11.2;5.7;;;;;;;3.0;84.0;102350.0;;;;
2020/12/25 10:04:46;;;;;;;11.2;5.7;;;;;;;3.1;84.0;102350.0;;;;
2020/12/25 10:05:46;;;;;;;11.2;5.7;;;;;;;3.0;83.9;102350.0;;;;
2020/12/25 10:06:46;;;;;;;11.2;5.7;;;;;;;3.1;84.1;102360.0;;;;
2020/12/25 10:14:46;;;;;;;11.2;5.7;;;;;;;3.0;83.8;102350.0;;;;
2020/12/25 10:16:46;;;;;;;11.2;5.7;;;;;;;3.1;83.4;102360.0;;;;
2020/12/25 10:18:46;;;;;;;11.2;5.7;;;;;;;3.0;83.5;102360.0;;;;
2020/12/25 10:20:47;;;;;;;11.2;5.7;;;;;;;3.1;83.4;102360.0;;;;
2020/12/25 10:21:48;;;;;;;11.2;5.7;;;;;;;3.0;83.8;102360.0;;;;
2020/12/25 10:23:46;;;;;;;11.2;5.7;;;;;;;3.1;83.8;102360.0;;;;
2020/12/25 10:24:46;;;;;;;11.2;5.7;;;;;;;3.0;83.8;102360.0;;;;
2020/12/25 10:25:46;;;;;;;11.2;5.7;;;;;;;3.1;83.6;102360.0;;;;
2020/12/25 10:26:47;;;;;;;11.2;5.7;;;;;;;3.0;83.6;102360.0;;;;
2020/12/25 10:27:46;;;;;;;9.4;5.1;;;;;;;3.1;83.5;102360.0;;;;
2020/12/25 10:32:46;;;;;;;9.4;5.1;;;;;;;3.0;83.9;102360.0;;;;
2020/12/25 10:33:46;;;;;;;9.4;5.1;;;;;;;3.1;84.1;102360.0;;;;
2020/12/25 10:34:46;;;;;;;9.4;5.1;;;;;;;3.2;83.6;102360.0;;;;
2020/12/25 10:35:46;;;;;;;9.4;5.1;;;;;;;3.1;83.9;102370.0;;;;
2020/12/25 10:36:46;;;;;;;9.4;5.1;;;;;;;3.2;83.9;102360.0;;;;
2020/12/25 10:40:47;;;;;;;9.4;5.1;;;;;;;3.3;83.5;102360.0;;;;
2020/12/25 10:43:46;;;;;;;9.4;5.1;;;;;;;3.4;83.2;102360.0;;;;
2020/12/25 10:44:46;;;;;;;9.4;5.1;;;;;;;3.5;83.2;102360.0;;;;
2020/12/25 10:46:46;;;;;;;9.4;5.1;;;;;;;3.4;83.5;102360.0;;;;
2020/12/25 10:47:46;;;;;;;9.4;5.1;;;;;;;3.5;83.7;102360.0;;;;
2020/12/25 10:49:46;;;;;;;9.4;5.1;;;;;;;3.6;83.5;102360.0;;;;
2020/12/25 10:50:46;;;;;;;9.4;5.1;;;;;;;3.5;83.3;102360.0;;;;
2020/12/25 10:51:46;;;;;;;9.4;5.1;;;;;;;3.6;83.4;102360.0;;;;
2020/12/25 10:52:46;;;;;;;9.4;5.1;;;;;;;3.7;83.6;102370.0;;;;
2020/12/25 10:54:46;;;;;;;9.4;5.1;;;;;;;3.6;83.4;102370.0;;;;
2020/12/25 10:56:46;;;;;;;9.4;5.1;;;;;;;3.7;82.9;102370.0;;;;
2020/12/25 10:59:48;;;;;;;8.3;4.3;;;;;;;3.8;83.2;102370.0;;;;
2020/12/25 11:01:47;;;;;;;8.3;4.3;;;;;;;3.9;83.3;102370.0;;;;
2020/12/25 11:02:46;;;;;;;8.3;4.3;;;;;;;3.8;83.0;102360.0;;;;
2020/12/25 11:03:46;;;;;;;8.3;4.3;;;;;;;3.9;83.2;102360.0;;;;
2020/12/25 11:06:46;;;;;;;8.3;4.3;;;;;;;4.0;83.1;102360.0;;;;
2020/12/25 11:07:46;;;;;;;8.3;4.3;;;;;;;4.1;82.8;102360.0;;;;
2020/12/25 11:08:47;;;;;;;8.3;4.3;;;;;;;4.0;82.8;102360.0;;;;
2020/12/25 11:09:46;;;;;;;8.3;4.3;;;;;;;4.1;83.2;102360.0;;;;
2020/12/25 11:11:46;;;;;;;8.3;4.3;;;;;;;4.0;82.1;102350.0;;;;
2020/12/25 11:12:46;;;;;;;8.3;4.3;;;;;;;3.9;82.5;102360.0;;;;
2020/12/25 11:13:46;;;;;;;8.3;4.3;;;;;;;4.0;82.7;102350.0;;;;
2020/12/25 11:15:46;;;;;;;8.3;4.3;;;;;;;3.9;82.4;102350.0;;;;
2020/12/25 11:17:46;;;;;;;8.3;4.3;;;;;;;4.0;82.5;102360.0;;;;
2020/12/25 11:18:46;;;;;;;8.3;4.3;;;;;;;3.9;82.5;102370.0;;;;
2020/12/25 11:20:46;;;;;;;8.3;4.3;;;;;;;3.8;82.4;102370.0;;;;
2020/12/25 11:21:46;;;;;;;8.3;4.3;;;;;;;3.9;82.6;102360.0;;;;
2020/12/25 11:22:46;;;;;;;8.3;4.3;;;;;;;3.8;82.4;102370.0;;;;
2020/12/25 11:23:46;;;;;;;8.3;4.3;;;;;;;3.9;82.6;102360.0;;;;
2020/12/25 11:24:46;;;;;;;8.3;4.3;;;;;;;4.0;82.7;102370.0;;;;
2020/12/25 11:26:46;;;;;;;8.3;4.3;;;;;;;3.9;82.1;102360.0;;;;
2020/12/25 11:28:46;;;;;;;6.8;3.4;;;;;;;4.0;82.7;102360.0;;;;
2020/12/25 11:32:46;;;;;;;6.8;3.4;;;;;;;4.1;82.6;102360.0;;;;
2020/12/25 11:33:46;;;;;;;6.8;3.4;;;;;;;4.0;82.9;102360.0;;;;
2020/12/25 11:35:46;;;;;;;6.8;3.4;;;;;;;4.1;82.9;102360.0;;;;
2020/12/25 11:36:46;;;;;;;6.8;3.4;;;;;;;4.2;82.2;102360.0;;;;
2020/12/25 11:37:46;;;;;;;6.8;3.4;;;;;;;4.3;82.4;102350.0;;;;
2020/12/25 11:39:46;;;;;;;6.8;3.4;;;;;;;4.2;82.6;102350.0;;;;
2020/12/25 11:40:46;;;;;;;6.8;3.4;;;;;;;4.3;82.1;102350.0;;;;
2020/12/25 11:41:31;;;;;;;6.8;3.4;;;;;;;4.3;82.1;102350.0;;;;
2020/12/25 11:43:47;;;;;;;6.8;3.4;;;;;;;4.2;82.5;102350.0;;;;
2020/12/25 11:44:46;;;;;;;6.8;3.4;;;;;;;4.3;82.0;102350.0;;;;
2020/12/25 11:47:46;;;;;;;6.8;3.4;;;;;;;4.4;81.7;102350.0;;;;
2020/12/25 11:49:46;;;;;;;6.8;3.4;;;;;;;4.3;81.7;102350.0;;;;
2020/12/25 11:50:46;;;;;;;6.8;3.4;;;;;;;4.4;82.0;102350.0;;;;
2020/12/25 11:51:46;;;;;;;6.8;3.4;;;;;;;4.3;81.5;102340.0;;;;
2020/12/25 11:53:46;;;;;;;6.8;3.4;;;;;;;4.4;82.1;102350.0;;;;
2020/12/25 11:57:46;;;;;;;8.6;3.5;;;;;;;4.6;81.1;102340.0;;;;
2020/12/25 11:58:46;;;;;;;8.6;3.5;;;;;;;4.4;81.7;102340.0;;;;
2020/12/25 11:59:46;;;;;;;8.6;3.5;;;;;;;4.5;81.1;102340.0;;;;
2020/12/25 12:02:46;;;;;;;8.6;3.5;;;;;;;4.4;81.6;102340.0;;;;
2020/12/25 12:04:46;;;;;;;8.6;3.5;;;;;;;4.5;81.2;102340.0;;;;
2020/12/25 12:05:46;;;;;;;8.6;3.5;;;;;;;4.6;81.2;102340.0;;;;
2020/12/25 12:06:46;;;;;;;8.6;3.5;;;;;;;4.5;81.5;102340.0;;;;
2020/12/25 12:08:46;;;;;;;8.6;3.5;;;;;;;4.5;82.0;102330.0;;;;
2020/12/25 12:12:46;;;;;;;8.6;3.5;;;;;;;4.7;81.7;102330.0;;;;
2020/12/25 12:13:46;;;;;;;8.6;3.5;;;;;;;4.6;82.0;102330.0;;;;
2020/12/25 12:15:46;;;;;;;8.6;3.5;;;;;;;4.5;81.4;102330.0;;;;
2020/12/25 12:16:46;;;;;;;8.6;3.5;;;;;;;4.6;82.3;102330.0;;;;
2020/12/25 12:17:46;;;;;;;8.6;3.5;;;;;;;4.7;81.8;102330.0;;;;
2020/12/25 12:18:47;;;;;;;8.6;3.5;;;;;;;4.6;81.3;102320.0;;;;
2020/12/25 12:19:46;;;;;;;8.6;3.5;;;;;;;4.7;81.9;102320.0;;;;
2020/12/25 12:22:46;;;;;;;8.6;3.5;;;;;;;4.8;82.0;102320.0;;;;
2020/12/25 12:25:46;;;;;;;8.6;3.5;;;;;;;4.9;81.0;102320.0;;;;
2020/12/25 12:26:47;;;;;;;8.6;3.5;;;;;;;5.0;80.9;102320.0;;;;
2020/12/25 12:27:46;;;;;;;6.6;3.0;;;;;;;4.9;81.0;102310.0;;;;
2020/12/25 12:29:46;;;;;;;6.6;3.0;;;;;;;4.8;80.3;102310.0;;;;
2020/12/25 12:31:46;;;;;;;6.6;3.0;;;;;;;4.9;81.5;102320.0;;;;
2020/12/25 12:34:46;;;;;;;6.6;3.0;;;;;;;4.8;81.1;102320.0;;;;
2020/12/25 12:36:46;;;;;;;6.6;3.0;;;;;;;4.7;80.9;102320.0;;;;
2020/12/25 12:38:46;;;;;;;6.6;3.0;;;;;;;4.6;80.9;102320.0;;;;
2020/12/25 12:39:46;;;;;;;6.6;3.0;;;;;;;4.7;80.5;102320.0;;;;
2020/12/25 12:42:46;;;;;;;6.6;3.0;;;;;;;4.6;80.2;102320.0;;;;
2020/12/25 12:44:46;;;;;;;6.6;3.0;;;;;;;4.5;81.1;102320.0;;;;
2020/12/25 12:45:46;;;;;;;6.6;3.0;;;;;;;4.6;81.3;102330.0;;;;
2020/12/25 12:46:46;;;;;;;6.6;3.0;;;;;;;4.5;80.6;102320.0;;;;
2020/12/25 12:47:46;;;;;;;6.6;3.0;;;;;;;4.6;80.7;102320.0;;;;
2020/12/25 12:48:46;;;;;;;6.6;3.0;;;;;;;4.4;80.5;102320.0;;;;
2020/12/25 12:50:48;;;;;;;6.6;3.0;;;;;;;4.5;80.7;102320.0;;;;
2020/12/25 12:52:46;;;;;;;6.6;3.0;;;;;;;4.6;81.1;102320.0;;;;
2020/12/25 12:53:46;;;;;;;6.6;3.0;;;;;;;4.5;81.4;102310.0;;;;
2020/12/25 12:56:46;;;;;;;8.8;3.9;;;;;;;4.6;81.5;102310.0;;;;
2020/12/25 13:01:46;;;;;;;8.8;3.9;;;;;;;4.7;80.8;102310.0;;;;
2020/12/25 13:04:46;;;;;;;8.8;3.9;;;;;;;4.8;80.8;102310.0;;;;
2020/12/25 13:15:46;;;;;;;8.8;3.9;;;;;;;4.9;80.4;102300.0;;;;
2020/12/25 13:16:46;;;;;;;8.8;3.9;;;;;;;4.8;80.0;102300.0;;;;
2020/12/25 13:22:46;;;;;;;8.8;3.9;;;;;;;4.9;80.1;102310.0;;;;
2020/12/25 13:24:46;;;;;;;8.8;3.9;;;;;;;4.8;80.6;102300.0;;;;
2020/12/25 13:25:46;;;;;;;8.8;3.9;;;;;;;4.9;80.4;102300.0;;;;
2020/12/25 13:26:46;;;;;;;7.0;3.2;;;;;;;5.0;80.7;102310.0;;;;
2020/12/25 13:28:47;;;;;;;7.0;3.2;;;;;;;5.1;81.0;102310.0;;;;
2020/12/25 13:30:46;;;;;;;7.0;3.2;;;;;;;5.2;80.3;102310.0;;;;
2020/12/25 13:32:46;;;;;;;7.0;3.2;;;;;;;5.1;80.4;102300.0;;;;
2020/12/25 13:34:46;;;;;;;7.0;3.2;;;;;;;5.0;80.6;102300.0;;;;
2020/12/25 13:35:46;;;;;;;7.0;3.2;;;;;;;5.1;80.4;102300.0;;;;
2020/12/25 13:36:46;;;;;;;7.0;3.2;;;;;;;5.2;81.2;102300.0;;;;